Terminal Aerodrome Forecast
Issued by NWS Memphis, TN

Current Version | Previous Version | Text Only | Print | Product List | Glossary On
Versions: 1 2 3 4 5 6 7 8 9 10 11 12 13 14 15 16 17 18 19 20 21 22 23 24 25 26 27 28
000
FTUS44 KMEG 250255 AAC
TAFMEM
TAF AMD
KMEM 250255Z 2503/2524 12007KT 4SM -SHRA BR VCTS SCT007 BKN018CB
      OVC030
      TEMPO 2503/2506 1 1/2SM +SHRA BR OVC012
     FM250600 15010KT 3SM -SHRA BR VCTS OVC007CB
     FM250900 18015G23KT P6SM VCTS SCT008 BKN012CB
      TEMPO 2509/2513 5SM -TSRA BKN008CB
     FM251600 23020G30KT P6SM SCT025=

USA.gov is the U.S. government's official web portal to all federal, state and local government web resources and services.